Time;durP1;ratioP1;P1;durP2;ratioP2;P2;SDS_P1;SDS_P2;PMS_P1;PMS_P2;Temp;Humidity;BMP_temperature;BMP_pressure;BME280_temperature;BME280_humidity;BME280_pressure;Samples;Min_cycle;Max_cycle;Signal;HPM_P1;HPM_P2
2021/09/17 00:01:33;188714.00;0.63;326.49;0.00;0.00;0.62;;;;;21.60;1.00;;;;;;2568855;55;1008;-87
2021/09/17 00:04:00;131243.00;0.44;227.47;0.00;0.00;0.62;;;;;21.40;1.00;;;;;;2564210;55;1948;-87
2021/09/17 00:06:28;242325.00;0.81;418.75;0.00;0.00;0.62;;;;;21.50;1.00;;;;;;2573178;55;1406;-86
2021/09/17 00:08:55;179633.00;0.60;310.86;0.00;0.00;0.62;;;;;21.30;1.40;;;;;;2563186;56;958;-86
2021/09/17 00:11:22;90471.00;0.30;157.12;0.00;0.00;0.62;;;;;21.10;2.20;;;;;;2563715;56;983;-86
2021/09/17 00:13:49;103683.00;0.35;179.93;0.00;0.00;0.62;;;;;21.30;1.10;;;;;;2559427;56;967;-86
2021/09/17 00:16:17;184713.00;0.62;319.61;0.00;0.00;0.62;;;;;21.60;1.70;;;;;;2565256;56;1325;-86
2021/09/17 00:18:44;133796.00;0.45;231.87;0.00;0.00;0.62;;;;;21.50;1.30;;;;;;2567673;56;971;-86
2021/09/17 00:21:11;301782.00;1.01;520.98;750.00;0.00;1.92;;;;;21.40;1.00;;;;;;2557688;56;951;-86
2021/09/17 00:23:40;112286.00;0.37;194.77;0.00;0.00;0.62;;;;;21.00;1.00;;;;;;2557686;56;933;-87
2021/09/17 00:26:07;111293.00;0.37;193.06;0.00;0.00;0.62;;;;;21.10;1.40;;;;;;2559345;55;1965;-86
2021/09/17 00:28:34;55046.00;0.18;95.91;0.00;0.00;0.62;;;;;21.10;1.00;;;;;;2559979;55;984;-87
2021/09/17 00:31:01;107456.00;0.36;186.44;0.00;0.00;0.62;;;;;21.20;1.40;;;;;;2564585;55;918;-87
2021/09/17 00:33:29;87784.00;0.29;152.48;0.00;0.00;0.62;;;;;21.40;2.70;;;;;;2564456;55;952;-86
2021/09/17 00:35:57;102918.00;0.34;178.61;0.00;0.00;0.62;;;;;21.80;2.00;;;;;;2572688;55;1440;-86
2021/09/17 00:38:23;34351.00;0.11;60.11;0.00;0.00;0.62;;;;;21.70;1.00;;;;;;2573919;55;950;-86
2021/09/17 00:40:51;152398.00;0.51;263.94;0.00;0.00;0.62;;;;;21.30;1.00;;;;;;2578783;55;978;-86
2021/09/17 00:43:17;303647.00;1.01;524.19;47638.00;0.16;83.10;;;;;20.80;1.00;;;;;;2573297;55;985;-86
2021/09/17 00:45:46;30925.00;0.10;54.18;0.00;0.00;0.62;;;;;20.70;1.00;;;;;;2573847;55;1900;-86
2021/09/17 00:48:13;130971.00;0.44;227.00;0.00;0.00;0.62;;;;;20.70;1.10;;;;;;2569635;55;1021;-86
2021/09/17 00:50:42;80626.00;0.27;140.12;0.00;0.00;0.62;;;;;20.80;3.70;;;;;;2573723;55;1004;-86
2021/09/17 00:53:10;148292.00;0.49;256.86;0.00;0.00;0.62;;;;;21.20;1.00;;;;;;2574047;55;936;-86
2021/09/17 00:55:37;139318.00;0.46;241.40;0.00;0.00;0.62;;;;;20.90;1.00;;;;;;2576322;55;1357;-86
2021/09/17 00:58:04;162033.00;0.54;280.54;0.00;0.00;0.62;;;;;21.00;3.20;;;;;;2573754;55;980;-86
2021/09/17 01:00:31;126642.00;0.42;219.54;0.00;0.00;0.62;;;;;21.00;1.90;;;;;;2571509;56;1052;-86
2021/09/17 01:02:58;59831.00;0.20;104.18;0.00;0.00;0.62;;;;;21.10;1.00;;;;;;2568531;55;988;-87
2021/09/17 01:05:25;143167.00;0.48;248.03;0.00;0.00;0.62;;;;;21.10;1.20;;;;;;2572728;55;1932;-86
2021/09/17 01:07:53;140813.00;0.47;243.97;0.00;0.00;0.62;;;;;21.20;1.00;;;;;;2567925;55;970;-87
2021/09/17 01:10:20;123403.00;0.41;213.95;0.00;0.00;0.62;;;;;21.40;1.40;;;;;;2563486;55;920;-86
2021/09/17 01:12:48;247663.00;0.83;427.93;22569.00;0.08;39.72;;;;;21.10;1.00;;;;;;2565619;55;1121;-86
2021/09/17 01:15:15;147693.00;0.49;255.83;0.00;0.00;0.62;;;;;20.60;1.00;;;;;;2562641;55;1289;-86
2021/09/17 01:17:44;207609.00;0.69;359.02;7183.00;0.02;13.07;;;;;20.80;1.00;;;;;;2553958;55;978;-87
2021/09/17 01:20:16;0.00;0.00;0.62;0.00;0.00;0.62;;;;;20.70;2.50;;;;;;2549282;56;985;-86
2021/09/17 01:22:45;167773.00;0.56;290.43;32765.00;0.11;57.37;;;;;21.00;2.10;;;;;;2550076;56;951;-86
2021/09/17 01:25:15;59462.00;0.20;103.55;0.00;0.00;0.62;;;;;21.00;1.40;;;;;;2554062;56;1967;-87
2021/09/17 01:27:44;82171.00;0.27;142.79;0.00;0.00;0.62;;;;;21.10;2.50;;;;;;2558484;56;933;-86
2021/09/17 01:30:12;330345.00;1.10;570.08;108356.00;0.36;187.99;;;;;21.10;1.40;;;;;;2558309;56;1003;-86
2021/09/17 01:32:41;0.00;0.00;0.62;0.00;0.00;0.62;;;;;20.90;1.00;;;;;;2559453;56;973;-86
2021/09/17 01:35:10;21161.00;0.07;37.28;0.00;0.00;0.62;;;;;21.20;1.40;;;;;;2557616;56;1335;-86
2021/09/17 01:37:37;177723.00;0.59;307.57;21100.00;0.07;37.17;;;;;21.20;1.10;;;;;;2546658;56;930;-86
2021/09/17 01:40:06;68402.00;0.23;119.00;0.00;0.00;0.62;;;;;20.90;1.00;;;;;;2547308;56;952;-86
2021/09/17 01:42:33;0.00;0.00;0.62;0.00;0.00;0.62;;;;;20.80;1.00;;;;;;2549275;56;922;-86
2021/09/17 01:45:00;144507.00;0.48;250.34;29452.00;0.10;51.63;;;;;20.90;2.30;;;;;;2552491;56;1960;-86
2021/09/17 01:47:27;0.00;0.00;0.62;0.00;0.00;0.62;;;;;20.90;2.20;;;;;;2552386;56;1011;-86
2021/09/17 01:49:54;273333.00;0.91;472.07;55305.00;0.18;96.36;;;;;21.10;1.00;;;;;;2548311;56;1008;-87
2021/09/17 01:52:21;0.00;0.00;0.62;0.00;0.00;0.62;;;;;21.00;1.00;;;;;;2553692;56;932;-86
2021/09/17 01:54:48;0.00;0.00;0.62;0.00;0.00;0.62;;;;;21.10;2.10;;;;;;2558292;56;1290;-87
2021/09/17 01:57:16;10215.00;0.03;18.32;0.00;0.00;0.62;;;;;21.10;2.00;;;;;;2562853;56;995;-87
2021/09/17 01:59:43;0.00;0.00;0.62;0.00;0.00;0.62;;;;;21.20;2.40;;;;;;2562190;56;1023;-86
2021/09/17 02:02:10;17518.00;0.06;30.97;0.00;0.00;0.62;;;;;21.10;1.60;;;;;;2563613;55;967;-86
2021/09/17 02:04:37;119843.00;0.40;207.81;0.00;0.00;0.62;;;;;21.30;1.40;;;;;;2568612;55;1952;-86
2021/09/17 02:07:04;107717.00;0.36;186.89;0.00;0.00;0.62;;;;;21.00;1.60;;;;;;2571986;55;1004;-87
2021/09/17 02:09:31;32753.00;0.11;57.35;0.00;0.00;0.62;;;;;20.90;1.00;;;;;;2564878;55;946;-86
2021/09/17 02:11:58;68169.00;0.23;118.60;0.00;0.00;0.62;;;;;20.90;1.00;;;;;;2573024;55;1037;-86
2021/09/17 02:14:27;139262.00;0.46;241.30;0.00;0.00;0.62;;;;;20.90;1.10;;;;;;2560079;55;1308;-86
2021/09/17 02:16:54;36537.00;0.12;63.90;0.00;0.00;0.62;;;;;20.90;1.00;;;;;;2572423;55;1021;-86
2021/09/17 02:19:21;73690.00;0.25;128.14;0.00;0.00;0.62;;;;;20.90;2.10;;;;;;2573114;55;1011;-87
2021/09/17 02:21:50;0.00;0.00;0.62;0.00;0.00;0.62;;;;;21.00;3.00;;;;;;2573138;55;977;-87
2021/09/17 02:24:18;223662.00;0.75;386.64;74143.00;0.25;128.92;;;;;20.90;1.60;;;;;;2568153;55;976;-86
2021/09/17 02:26:45;301362.00;1.00;520.26;68855.00;0.23;119.78;;;;;21.00;2.40;;;;;;2568531;55;2036;-86
2021/09/17 02:29:12;0.00;0.00;0.62;0.00;0.00;0.62;;;;;21.10;1.20;;;;;;2565152;55;966;-86
2021/09/17 02:31:40;0.00;0.00;0.62;0.00;0.00;0.62;;;;;21.10;2.80;;;;;;2576037;55;1049;-87
2021/09/17 02:34:07;42200.00;0.14;73.69;0.00;0.00;0.62;;;;;21.30;2.50;;;;;;2576497;55;1078;-86
2021/09/17 02:36:34;0.00;0.00;0.62;0.00;0.00;0.62;;;;;21.40;1.60;;;;;;2578684;55;1376;-86
2021/09/17 02:39:01;111786.00;0.37;193.91;0.00;0.00;0.62;;;;;21.40;1.00;;;;;;2576335;55;1040;-86
2021/09/17 02:41:28;56345.00;0.19;98.16;0.00;0.00;0.62;;;;;21.20;1.20;;;;;;2576902;55;1065;-86
2021/09/17 02:43:55;0.00;0.00;0.62;0.00;0.00;0.62;;;;;20.90;2.30;;;;;;2579060;55;1011;-87
2021/09/17 02:46:22;74250.00;0.25;129.10;0.00;0.00;0.62;;;;;21.10;2.70;;;;;;2579205;55;1905;-86
2021/09/17 02:48:50;0.00;0.00;0.62;0.00;0.00;0.62;;;;;21.10;1.00;;;;;;2577063;55;1100;-86
2021/09/17 02:51:17;0.00;0.00;0.62;0.00;0.00;0.62;;;;;21.10;2.40;;;;;;2578560;55;955;-86
2021/09/17 02:53:43;312190.00;1.04;538.87;93139.00;0.31;161.73;;;;;21.30;2.80;;;;;;2573287;55;975;-87
2021/09/17 02:56:10;0.00;0.00;0.62;0.00;0.00;0.62;;;;;21.50;1.00;;;;;;2560663;55;1400;-86
2021/09/17 02:58:37;0.00;0.00;0.62;0.00;0.00;0.62;;;;;21.60;1.00;;;;;;2560682;55;994;-86
2021/09/17 03:01:04;150896.00;0.50;261.35;12980.00;0.04;23.11;;;;;21.50;1.70;;;;;;2567756;55;1029;-86
2021/09/17 03:03:31;0.00;0.00;0.62;0.00;0.00;0.62;;;;;21.30;1.00;;;;;;2559875;55;947;-86
2021/09/17 03:06:00;0.00;0.00;0.62;0.00;0.00;0.62;;;;;20.90;1.30;;;;;;2563988;55;1948;-86
2021/09/17 03:08:27;27793.00;0.09;48.76;0.00;0.00;0.62;;;;;20.70;1.00;;;;;;2567926;55;995;-86
2021/09/17 03:10:57;0.00;0.00;0.62;0.00;0.00;0.62;;;;;21.00;2.30;;;;;;2555804;55;999;-86
2021/09/17 03:13:25;0.00;0.00;0.62;0.00;0.00;0.62;;;;;20.70;1.00;;;;;;2569173;55;989;-86
2021/09/17 03:15:52;0.00;0.00;0.62;0.00;0.00;0.62;;;;;20.70;1.90;;;;;;2569180;55;1407;-86
2021/09/17 03:18:19;45348.00;0.15;79.14;0.00;0.00;0.62;;;;;20.70;1.00;;;;;;2572169;55;1090;-86
2021/09/17 03:20:49;124227.00;0.41;215.37;0.00;0.00;0.62;;;;;20.50;1.00;;;;;;2573530;55;975;-85
2021/09/17 03:23:17;0.00;0.00;0.62;0.00;0.00;0.62;;;;;20.20;1.40;;;;;;2574220;55;976;-85
2021/09/17 03:25:44;0.00;0.00;0.62;0.00;0.00;0.62;;;;;20.50;4.50;;;;;;2574295;55;1953;-87
2021/09/17 03:28:11;0.00;0.00;0.62;0.00;0.00;0.62;;;;;20.90;1.40;;;;;;2574419;55;958;-86
2021/09/17 03:30:38;17085.00;0.06;30.22;0.00;0.00;0.62;;;;;20.90;2.90;;;;;;2574226;55;933;-86
2021/09/17 03:33:05;0.00;0.00;0.62;0.00;0.00;0.62;;;;;21.00;2.20;;;;;;2574323;55;927;-86
2021/09/17 03:35:32;0.00;0.00;0.62;0.00;0.00;0.62;;;;;21.10;1.50;;;;;;2574369;55;1314;-87
2021/09/17 03:37:59;96866.00;0.32;168.16;31012.00;0.10;54.33;;;;;21.00;1.00;;;;;;2573601;55;954;-86
2021/09/17 03:40:27;28484.00;0.09;49.96;0.00;0.00;0.62;;;;;20.60;2.70;;;;;;2574351;55;942;-86
2021/09/17 03:42:54;93287.00;0.31;161.98;24162.00;0.08;42.48;;;;;20.70;1.10;;;;;;2574417;55;1013;-86
2021/09/17 03:45:21;0.00;0.00;0.62;0.00;0.00;0.62;;;;;20.70;1.00;;;;;;2573091;55;1901;-86
2021/09/17 03:47:48;0.00;0.00;0.62;0.00;0.00;0.62;;;;;20.40;1.00;;;;;;2560545;55;934;-86
2021/09/17 03:50:15;0.00;0.00;0.62;0.00;0.00;0.62;;;;;20.40;1.90;;;;;;2560621;56;981;-85
2021/09/17 03:52:42;0.00;0.00;0.62;0.00;0.00;0.62;;;;;20.50;1.00;;;;;;2559872;56;911;-86
2021/09/17 03:55:10;8413.00;0.03;15.20;0.00;0.00;0.62;;;;;20.50;2.90;;;;;;2560267;55;1412;-86
2021/09/17 03:57:38;0.00;0.00;0.62;0.00;0.00;0.62;;;;;20.50;1.40;;;;;;2560281;55;949;-86
2021/09/17 04:00:07;6304.00;0.02;11.55;0.00;0.00;0.62;;;;;20.70;3.30;;;;;;2573104;55;942;-86
2021/09/17 04:02:34;0.00;0.00;0.62;0.00;0.00;0.62;;;;;20.70;1.00;;;;;;2573886;55;919;-86
2021/09/17 04:05:01;0.00;0.00;0.62;0.00;0.00;0.62;;;;;20.70;1.00;;;;;;2574044;55;1398;-86
2021/09/17 04:07:28;0.00;0.00;0.62;0.00;0.00;0.62;;;;;20.40;1.00;;;;;;2573991;55;1964;-84
2021/09/17 04:09:55;26603.00;0.09;46.70;0.00;0.00;0.62;;;;;20.40;1.80;;;;;;2574064;55;938;-84
2021/09/17 04:12:22;0.00;0.00;0.62;0.00;0.00;0.62;;;;;20.50;1.70;;;;;;2574074;55;976;-84
2021/09/17 04:14:50;0.00;0.00;0.62;0.00;0.00;0.62;;;;;20.60;3.10;;;;;;2574043;55;1416;-86
2021/09/17 04:17:17;0.00;0.00;0.62;0.00;0.00;0.62;;;;;20.60;1.40;;;;;;2574093;55;922;-86
2021/09/17 04:19:44;0.00;0.00;0.62;0.00;0.00;0.62;;;;;20.50;1.00;;;;;;2578866;55;928;-84
2021/09/17 04:22:11;109279.00;0.36;189.59;43133.00;0.14;75.31;;;;;20.40;2.20;;;;;;2573093;55;920;-84
2021/09/17 04:24:39;4451.00;0.01;8.33;0.00;0.00;0.62;;;;;20.60;4.50;;;;;;2564505;55;1405;-85
2021/09/17 04:27:06;0.00;0.00;0.62;0.00;0.00;0.62;;;;;20.80;3.30;;;;;;2562756;56;1960;-84
2021/09/17 04:29:33;52505.00;0.18;91.52;0.00;0.00;0.62;;;;;21.00;3.60;;;;;;2554288;56;965;-85
2021/09/17 04:32:01;39501.00;0.13;69.03;0.00;0.00;0.62;;;;;21.00;2.90;;;;;;2562924;56;954;-85
2021/09/17 04:34:28;9567.00;0.03;17.20;0.00;0.00;0.62;;;;;20.90;2.40;;;;;;2554265;56;1352;-85
2021/09/17 04:36:56;0.00;0.00;0.62;0.00;0.00;0.62;;;;;21.00;3.10;;;;;;2562933;56;986;-85
2021/09/17 04:39:23;44176.00;0.15;77.11;0.00;0.00;0.62;;;;;21.10;2.70;;;;;;2564166;55;983;-85
2021/09/17 04:41:50;6562.00;0.02;11.99;0.00;0.00;0.62;;;;;21.20;2.80;;;;;;2564522;55;942;-85
2021/09/17 04:44:16;230549.00;0.77;398.49;0.00;0.00;0.62;;;;;20.80;1.00;;;;;;2565152;55;1002;-85
2021/09/17 04:46:43;43181.00;0.14;75.39;0.00;0.00;0.62;;;;;20.60;1.80;;;;;;2573950;55;1955;-85
2021/09/17 04:49:12;18208.00;0.06;32.17;0.00;0.00;0.62;;;;;20.90;4.00;;;;;;2578815;55;947;-84
2021/09/17 04:51:39;120821.00;0.40;209.50;54402.00;0.18;94.80;;;;;21.00;2.30;;;;;;2573046;55;981;-85
2021/09/17 04:54:06;71798.00;0.24;124.87;0.00;0.00;0.62;;;;;21.10;1.30;;;;;;2573226;55;1074;-85
2021/09/17 04:56:33;0.00;0.00;0.62;0.00;0.00;0.62;;;;;21.10;1.20;;;;;;2573156;55;1415;-85
2021/09/17 04:59:00;0.00;0.00;0.62;0.00;0.00;0.62;;;;;20.70;1.00;;;;;;2573240;55;920;-86
2021/09/17 05:01:27;0.00;0.00;0.62;0.00;0.00;0.62;;;;;20.70;2.90;;;;;;2560332;56;915;-85
2021/09/17 05:03:54;0.00;0.00;0.62;0.00;0.00;0.62;;;;;21.20;2.70;;;;;;2557688;56;974;-85
2021/09/17 05:06:22;38479.00;0.13;67.26;0.00;0.00;0.62;;;;;21.40;2.20;;;;;;2557729;56;1956;-85
2021/09/17 05:08:49;0.00;0.00;0.62;0.00;0.00;0.62;;;;;21.80;1.40;;;;;;2558920;56;994;-85
2021/09/17 05:11:17;23512.00;0.08;41.35;0.00;0.00;0.62;;;;;21.80;1.90;;;;;;2559440;56;933;-85
2021/09/17 05:13:44;0.00;0.00;0.62;0.00;0.00;0.62;;;;;22.10;1.20;;;;;;2559369;56;1101;-84
2021/09/17 05:16:11;45216.00;0.15;78.91;0.00;0.00;0.62;;;;;22.00;1.00;;;;;;2555070;56;1423;-84
2021/09/17 05:18:37;80557.00;0.27;140.00;14194.00;0.05;25.21;;;;;21.60;1.00;;;;;;2565746;56;1165;-85
2021/09/17 05:21:04;50837.00;0.17;88.63;0.00;0.00;0.62;;;;;21.80;2.10;;;;;;2560559;55;1082;-85
2021/09/17 05:23:33;0.00;0.00;0.62;0.00;0.00;0.62;;;;;22.00;1.80;;;;;;2573078;55;959;-85
2021/09/17 05:26:02;0.00;0.00;0.62;0.00;0.00;0.62;;;;;22.20;1.10;;;;;;2573098;55;1959;-84
2021/09/17 05:28:29;0.00;0.00;0.62;0.00;0.00;0.62;;;;;22.40;1.00;;;;;;2557653;56;989;-85
2021/09/17 05:30:56;31057.00;0.10;54.41;0.00;0.00;0.62;;;;;22.00;1.00;;;;;;2553462;56;971;-85
2021/09/17 05:33:22;20672.00;0.07;36.43;0.00;0.00;0.62;;;;;21.60;1.00;;;;;;2549175;56;944;-85
2021/09/17 05:35:49;383194.00;1.28;660.92;112870.00;0.38;195.78;;;;;21.60;1.20;;;;;;2553323;56;1431;-85
2021/09/17 05:38:18;18297.00;0.06;32.32;0.00;0.00;0.62;;;;;21.60;1.00;;;;;;2557556;56;962;-85
2021/09/17 05:40:46;37441.00;0.12;65.46;0.00;0.00;0.62;;;;;21.60;1.00;;;;;;2547815;56;971;-84
2021/09/17 05:43:13;20115.00;0.07;35.47;0.00;0.00;0.62;;;;;21.30;1.00;;;;;;2553310;56;1066;-85
2021/09/17 05:45:40;0.00;0.00;0.62;0.00;0.00;0.62;;;;;21.00;1.20;;;;;;2559201;55;1389;-85
2021/09/17 05:48:08;5468.00;0.02;10.10;0.00;0.00;0.62;;;;;20.90;1.00;;;;;;2568688;55;1964;-85
2021/09/17 05:50:35;214179.00;0.71;370.33;18460.00;0.06;32.60;;;;;20.80;2.50;;;;;;2573175;55;1001;-86
2021/09/17 05:53:02;0.00;0.00;0.62;0.00;0.00;0.62;;;;;21.00;2.10;;;;;;2564403;55;996;-85
2021/09/17 05:55:29;139538.00;0.47;241.77;0.00;0.00;0.62;;;;;21.10;1.50;;;;;;2560206;55;1297;-86
2021/09/17 05:57:58;0.00;0.00;0.62;0.00;0.00;0.62;;;;;20.80;2.10;;;;;;2573646;55;936;-86
2021/09/17 06:00:25;77379.00;0.26;134.51;0.00;0.00;0.62;;;;;20.70;1.00;;;;;;2573813;55;952;-85
2021/09/17 06:02:52;26077.00;0.09;45.79;0.00;0.00;0.62;;;;;20.40;1.00;;;;;;2573803;55;1233;-84
2021/09/17 06:05:19;9425.00;0.03;16.95;0.00;0.00;0.62;;;;;20.30;4.20;;;;;;2578700;55;1550;-83
2021/09/17 06:07:46;48008.00;0.16;83.74;0.00;0.00;0.62;;;;;20.50;4.50;;;;;;2578688;55;1928;-84
2021/09/17 06:10:15;16780.00;0.06;29.69;0.00;0.00;0.62;;;;;20.80;4.50;;;;;;2572943;55;981;-84
2021/09/17 06:12:44;0.00;0.00;0.62;0.00;0.00;0.62;;;;;20.80;1.00;;;;;;2568743;55;975;-84
2021/09/17 06:15:16;9690.00;0.03;17.41;0.00;0.00;0.62;;;;;20.70;2.40;;;;;;2568537;55;1359;-83
2021/09/17 06:17:44;108226.00;0.36;187.77;42187.00;0.14;73.67;;;;;20.40;2.90;;;;;;2567658;55;967;-84
2021/09/17 06:20:14;0.00;0.00;0.62;0.00;0.00;0.62;;;;;20.70;1.70;;;;;;2562459;55;1002;-84
2021/09/17 06:22:43;23678.00;0.08;41.64;0.00;0.00;0.62;;;;;20.70;2.90;;;;;;2557620;55;998;-85
2021/09/17 06:25:11;82526.00;0.28;143.40;0.00;0.00;0.62;;;;;20.90;4.10;;;;;;2562303;55;1395;-84
2021/09/17 06:27:38;23726.00;0.08;41.72;0.00;0.00;0.62;;;;;21.10;3.80;;;;;;2557394;56;1957;-84
2021/09/17 06:30:06;457419.00;1.52;788.54;79781.00;0.27;138.66;;;;;21.10;3.90;;;;;;2549024;56;945;-84
2021/09/17 06:32:41;109851.00;0.37;190.57;43874.00;0.15;76.59;;;;;21.20;1.90;;;;;;2556925;56;963;-85
2021/09/17 06:35:09;0.00;0.00;0.62;0.00;0.00;0.62;;;;;21.30;3.10;;;;;;2559610;56;1378;-84
2021/09/17 06:37:44;268961.00;0.90;464.56;65115.00;0.22;113.32;;;;;21.30;1.20;;;;;;2564625;55;922;-85
2021/09/17 06:40:13;75615.00;0.25;131.46;9031.00;0.03;16.27;;;;;20.90;1.00;;;;;;2559576;55;992;-85
2021/09/17 06:42:40;0.00;0.00;0.62;0.00;0.00;0.62;;;;;21.00;3.20;;;;;;2559627;55;969;-85
2021/09/17 06:45:08;0.00;0.00;0.62;0.00;0.00;0.62;;;;;21.30;3.10;;;;;;2561650;55;1391;-84
2021/09/17 06:47:44;0.00;0.00;0.62;0.00;0.00;0.62;;;;;21.50;1.40;;;;;;2577413;55;1890;-84
2021/09/17 06:50:11;0.00;0.00;0.62;0.00;0.00;0.62;;;;;21.60;1.00;;;;;;2567754;56;909;-85
2021/09/17 06:52:39;41878.00;0.14;73.14;0.00;0.00;0.62;;;;;21.60;1.40;;;;;;2567894;56;957;-85
2021/09/17 06:55:07;4443.00;0.01;8.32;0.00;0.00;0.62;;;;;21.20;1.00;;;;;;2567729;56;1356;-84
2021/09/17 06:57:46;0.00;0.00;0.62;0.00;0.00;0.62;;;;;21.30;1.40;;;;;;2563503;56;1172;-85
2021/09/17 07:00:14;0.00;0.00;0.62;0.00;0.00;0.62;;;;;21.40;1.00;;;;;;2565240;56;1097;-85
2021/09/17 07:02:43;0.00;0.00;0.62;0.00;0.00;0.62;;;;;21.20;1.00;;;;;;2567580;56;908;-85
2021/09/17 07:05:11;0.00;0.00;0.62;0.00;0.00;0.62;;;;;21.30;1.00;;;;;;2563364;56;1398;-85
2021/09/17 07:07:38;96904.00;0.32;168.23;31099.00;0.10;54.49;;;;;21.20;1.00;;;;;;2564875;55;1956;-85
2021/09/17 07:10:07;81046.00;0.27;140.84;9955.00;0.03;17.87;;;;;21.20;1.00;;;;;;2559525;55;967;-85
2021/09/17 07:12:34;102231.00;0.34;177.42;0.00;0.00;0.62;;;;;21.40;1.00;;;;;;2573006;55;1029;-85
2021/09/17 07:15:02;0.00;0.00;0.62;0.00;0.00;0.62;;;;;21.30;1.00;;;;;;2564266;55;1339;-85
2021/09/17 07:17:29;40087.00;0.13;70.04;0.00;0.00;0.62;;;;;21.50;1.00;;;;;;2564218;56;959;-85
2021/09/17 07:19:57;0.00;0.00;0.62;0.00;0.00;0.62;;;;;21.60;1.00;;;;;;2562655;56;912;-85
2021/09/17 07:22:24;0.00;0.00;0.62;0.00;0.00;0.62;;;;;21.40;1.00;;;;;;2560416;56;1014;-85
2021/09/17 07:24:51;70903.00;0.24;123.32;0.00;0.00;0.62;;;;;21.70;1.00;;;;;;2554454;56;1384;-85
2021/09/17 07:27:18;6207.00;0.02;11.38;0.00;0.00;0.62;;;;;21.40;1.00;;;;;;2567945;56;1889;-85
2021/09/17 07:29:45;176327.00;0.59;305.16;43768.00;0.15;76.41;;;;;21.20;1.00;;;;;;2565881;56;1111;-85
2021/09/17 07:32:12;66949.00;0.22;116.49;0.00;0.00;0.62;;;;;21.30;1.00;;;;;;2565425;56;1087;-85
2021/09/17 07:34:39;0.00;0.00;0.62;0.00;0.00;0.62;;;;;21.30;1.00;;;;;;2565822;56;1372;-85
2021/09/17 07:37:07;270469.00;0.90;467.15;23693.00;0.08;41.66;;;;;21.40;1.00;;;;;;2569177;55;948;-85
2021/09/17 07:39:34;63591.00;0.21;110.68;0.00;0.00;0.62;;;;;21.50;1.00;;;;;;2576189;55;1080;-85
2021/09/17 07:42:01;126409.00;0.42;219.14;0.00;0.00;0.62;;;;;21.80;1.00;;;;;;2578721;55;1729;-85
2021/09/17 07:44:30;0.00;0.00;0.62;0.00;0.00;0.62;;;;;21.70;1.00;;;;;;2576603;55;1300;-85
2021/09/17 07:46:57;0.00;0.00;0.62;0.00;0.00;0.62;;;;;21.50;1.00;;;;;;2576211;55;1950;-85
2021/09/17 07:49:24;185935.00;0.62;321.71;26167.00;0.09;45.95;;;;;21.60;1.00;;;;;;2576612;55;1089;-85
2021/09/17 07:51:51;0.00;0.00;0.62;0.00;0.00;0.62;;;;;21.70;1.00;;;;;;2576574;55;1090;-85
2021/09/17 07:54:20;29771.00;0.10;52.19;0.00;0.00;0.62;;;;;22.10;1.00;;;;;;2573449;55;972;-85
2021/09/17 07:56:46;11069.00;0.04;19.80;0.00;0.00;0.62;;;;;21.80;1.00;;;;;;2578846;55;1383;-85
2021/09/17 07:59:14;2046.00;0.01;4.17;0.00;0.00;0.62;;;;;21.80;1.00;;;;;;2574064;55;1083;-86
2021/09/17 08:01:41;11004.00;0.04;19.69;0.00;0.00;0.62;;;;;22.00;1.00;;;;;;2578439;55;958;-86
2021/09/17 08:04:08;0.00;0.00;0.62;0.00;0.00;0.62;;;;;22.20;1.00;;;;;;2573093;55;919;-86
2021/09/17 08:06:35;12643.00;0.04;22.53;0.00;0.00;0.62;;;;;22.10;1.00;;;;;;2568617;55;1959;-85
2021/09/17 08:09:01;150249.00;0.50;260.24;0.00;0.00;0.62;;;;;22.10;1.00;;;;;;2568174;55;972;-85
2021/09/17 08:11:30;0.00;0.00;0.62;0.00;0.00;0.62;;;;;21.90;1.00;;;;;;2568518;55;943;-85
2021/09/17 08:13:57;211464.00;0.70;365.65;39726.00;0.13;69.41;;;;;22.10;1.00;;;;;;2573117;55;1022;-85
2021/09/17 08:16:23;34213.00;0.11;59.87;0.00;0.00;0.62;;;;;22.50;1.00;;;;;;2564031;55;1280;-85
2021/09/17 08:18:50;99713.00;0.33;173.08;0.00;0.00;0.62;;;;;22.70;1.00;;;;;;2564524;55;923;-85
2021/09/17 08:21:17;95560.00;0.32;165.91;0.00;0.00;0.62;;;;;23.10;1.00;;;;;;2569254;55;962;-85
2021/09/17 08:23:44;0.00;0.00;0.62;0.00;0.00;0.62;;;;;23.10;1.00;;;;;;2578823;55;931;-85
2021/09/17 08:26:12;13852.00;0.05;24.62;0.00;0.00;0.62;;;;;23.30;1.00;;;;;;2576575;55;1351;-85
2021/09/17 08:28:40;0.00;0.00;0.62;0.00;0.00;0.62;;;;;23.60;1.00;;;;;;2575878;55;1952;-85
2021/09/17 08:31:07;0.00;0.00;0.62;0.00;0.00;0.62;;;;;23.50;1.00;;;;;;2578845;55;962;-85
2021/09/17 08:33:34;25512.00;0.09;44.81;0.00;0.00;0.62;;;;;23.40;1.00;;;;;;2574044;55;966;-85
2021/09/17 08:36:01;28992.00;0.10;50.84;0.00;0.00;0.62;;;;;23.30;1.00;;;;;;2578658;55;1386;-85
2021/09/17 08:38:29;0.00;0.00;0.62;0.00;0.00;0.62;;;;;23.00;1.00;;;;;;2573545;55;950;-85
2021/09/17 08:40:57;178064.00;0.59;308.16;0.00;0.00;0.62;;;;;23.10;1.00;;;;;;2573057;55;912;-85
2021/09/17 08:43:26;82191.00;0.27;142.82;0.00;0.00;0.62;;;;;23.20;1.00;;;;;;2560047;55;928;-84
2021/09/17 08:45:54;142026.00;0.47;246.06;22966.00;0.08;40.41;;;;;23.10;1.00;;;;;;2568098;55;1308;-85
2021/09/17 08:48:27;218753.00;0.73;378.20;85727.00;0.29;148.93;;;;;23.10;1.00;;;;;;2568819;55;1901;-85
2021/09/17 08:50:55;0.00;0.00;0.62;0.00;0.00;0.62;;;;;23.00;1.00;;;;;;2560185;55;980;-84
2021/09/17 08:53:22;26091.00;0.09;45.82;0.00;0.00;0.62;;;;;23.40;1.00;;;;;;2573143;55;979;-84
2021/09/17 08:55:49;116954224.00;389.85;64799536.00;0.00;0.00;0.62;;;;;23.20;1.00;;;;;;2568688;55;1368;-85
2021/09/17 08:58:16;0.00;0.00;0.62;0.00;0.00;0.62;;;;;23.40;1.00;;;;;;2568807;55;969;-84
2021/09/17 09:00:44;17517.00;0.06;30.97;0.00;0.00;0.62;;;;;23.40;1.00;;;;;;2572920;55;947;-84
2021/09/17 09:03:27;0.00;0.00;0.62;0.00;0.00;0.62;;;;;23.80;1.00;;;;;;2560227;55;1016;-85
2021/09/17 09:05:54;28424.00;0.09;49.86;0.00;0.00;0.62;;;;;23.80;1.00;;;;;;2559945;56;1392;-85
2021/09/17 09:08:24;0.00;0.00;0.62;0.00;0.00;0.62;;;;;24.20;1.00;;;;;;2572846;55;1950;-84
2021/09/17 09:10:51;0.00;0.00;0.62;0.00;0.00;0.62;;;;;24.10;1.00;;;;;;2573168;55;972;-84
2021/09/17 09:13:19;0.00;0.00;0.62;0.00;0.00;0.62;;;;;24.20;1.00;;;;;;2572706;55;986;-84
2021/09/17 09:15:46;0.00;0.00;0.62;0.00;0.00;0.62;;;;;24.30;1.00;;;;;;2572959;55;1350;-84
2021/09/17 09:18:18;0.00;0.00;0.62;0.00;0.00;0.62;;;;;24.30;1.00;;;;;;2570489;55;895;-84
2021/09/17 09:20:47;0.00;0.00;0.62;0.00;0.00;0.62;;;;;24.10;1.00;;;;;;2578914;55;968;-84
2021/09/17 09:23:19;0.00;0.00;0.62;0.00;0.00;0.62;;;;;24.20;1.00;;;;;;2574336;55;990;-84
2021/09/17 09:25:53;0.00;0.00;0.62;0.00;0.00;0.62;;;;;24.60;1.00;;;;;;2574440;55;1461;-84
2021/09/17 09:28:21;0.00;0.00;0.62;0.00;0.00;0.62;;;;;24.90;1.00;;;;;;2574468;55;1950;-84
2021/09/17 09:30:48;164914.00;0.55;285.51;65897.00;0.22;114.67;;;;;25.40;1.00;;;;;;2574512;55;1115;-83
2021/09/17 09:33:29;0.00;0.00;0.62;0.00;0.00;0.62;;;;;25.70;1.00;;;;;;2573192;55;1001;-84
2021/09/17 09:36:05;0.00;0.00;0.62;0.00;0.00;0.62;;;;;25.60;1.00;;;;;;2568925;55;1312;-85
2021/09/17 09:38:38;0.00;0.00;0.62;0.00;0.00;0.62;;;;;25.80;1.00;;;;;;2573629;55;983;-83
2021/09/17 09:41:08;0.00;0.00;0.62;0.00;0.00;0.62;;;;;26.10;1.00;;;;;;2569245;55;971;-84
2021/09/17 09:43:37;0.00;0.00;0.62;0.00;0.00;0.62;;;;;26.30;1.00;;;;;;2568606;55;982;-83
2021/09/17 09:46:32;0.00;0.00;0.62;0.00;0.00;0.62;;;;;26.50;1.00;;;;;;2569141;55;1339;-85
2021/09/17 09:49:12;0.00;0.00;0.62;0.00;0.00;0.62;;;;;26.70;1.00;;;;;;2573414;55;1918;-85
2021/09/17 09:51:42;20060.00;0.07;35.37;0.00;0.00;0.62;;;;;26.60;1.00;;;;;;2571890;55;1054;-84
2021/09/17 09:54:11;46784.00;0.16;81.62;0.00;0.00;0.62;;;;;26.60;1.00;;;;;;2579242;55;1087;-86
2021/09/17 09:56:42;61869.00;0.21;107.71;0.00;0.00;0.62;;;;;26.10;1.00;;;;;;2574329;55;1339;-85
2021/09/17 09:59:09;86987.00;0.29;151.10;0.00;0.00;0.62;;;;;25.70;1.00;;;;;;2574496;55;964;-84
2021/09/17 10:01:38;36942.00;0.12;64.60;0.00;0.00;0.62;;;;;25.30;1.00;;;;;;2574515;55;1113;-85
2021/09/17 10:04:06;64620.00;0.22;112.46;0.00;0.00;0.62;;;;;25.60;1.00;;;;;;2573658;55;956;-84
2021/09/17 10:06:36;19046.00;0.06;33.62;0.00;0.00;0.62;;;;;25.30;1.00;;;;;;2573433;55;1384;-84
2021/09/17 10:09:06;128881.00;0.43;223.40;0.00;0.00;0.62;;;;;25.10;1.00;;;;;;2569238;55;1960;-84
2021/09/17 10:11:33;39756.00;0.13;69.47;0.00;0.00;0.62;;;;;25.20;1.00;;;;;;2569068;55;1029;-85
2021/09/17 10:14:05;85801.00;0.29;149.06;0.00;0.00;0.62;;;;;25.00;1.00;;;;;;2571198;56;944;-84
2021/09/17 10:16:36;178651.00;0.60;309.17;0.00;0.00;0.62;;;;;24.90;1.00;;;;;;2569282;55;1458;-85
2021/09/17 10:19:03;85082.00;0.28;147.81;0.00;0.00;0.62;;;;;25.10;1.00;;;;;;2573289;55;989;-85
2021/09/17 10:21:50;2961.00;0.01;5.75;0.00;0.00;0.62;;;;;25.50;1.00;;;;;;2569026;55;971;-84
2021/09/17 10:24:35;70068.00;0.23;121.88;0.00;0.00;0.62;;;;;25.20;1.00;;;;;;2570174;55;1183;-84